Wetterdaten: Woche 14.12.09 - 20.12.09 (KW51)
Datum Zeit Temp. A. Feuchte A. Luftdruck Regen Wind Richtung Taupunkt Windchill Windben
14.12.2009 00:00 -2,7 C 76 % 1022,3 hPa 0,0 l/m 2,0 km/h N-NW -6,4 C -2,7 C 6,0 km/h
14.12.2009 01:00 -2,8 C 75 % 1022,3 hPa 0,0 l/m 2,2 km/h N-NW -6,7 C -2,8 C 6,8 km/h
14.12.2009 02:00 -3,0 C 74 % 1022,3 hPa 0,0 l/m 2,0 km/h N-NW -6,9 C -3,0 C 6,8 km/h
14.12.2009 03:00 -3,1 C 72 % 1022,3 hPa 0,0 l/m 1,9 km/h NO -7,5 C -3,1 C 6,8 km/h
14.12.2009 04:00 -3,1 C 68 % 1022,4 hPa 0,0 l/m 1,9 km/h NO -8,1 C -3,1 C 7,2 km/h
14.12.2009 05:00 -3,1 C 68 % 1022,3 hPa 0,0 l/m 2,0 km/h NO -8,2 C -3,1 C 5,6 km/h
14.12.2009 06:00 -3,2 C 69 % 1022,1 hPa 0,0 l/m 1,1 km/h NO -8,2 C -3,2 C 6,0 km/h
14.12.2009 07:00 -3,3 C 68 % 1022,5 hPa 0,0 l/m 1,8 km/h NO -8,4 C -3,3 C 6,0 km/h
14.12.2009 08:00 -3,3 C 67 % 1022,8 hPa 0,0 l/m 2,5 km/h O-NO -8,6 C -3,3 C 6,8 km/h
14.12.2009 09:00 -3,2 C 66 % 1022,8 hPa 0,0 l/m 2,0 km/h N-NO -8,6 C -3,2 C 5,6 km/h
14.12.2009 10:00 -2,8 C 66 % 1022,7 hPa 0,0 l/m 1,0 km/h NO -8,4 C -2,8 C 5,2 km/h
14.12.2009 11:00 -2,5 C 64 % 1022,0 hPa 0,0 l/m 1,1 km/h O-NO -8,5 C -2,5 C 4,4 km/h
14.12.2009 12:00 -2,5 C 64 % 1021,5 hPa 0,0 l/m 2,1 km/h O-NO -8,4 C -2,5 C 6,0 km/h
14.12.2009 13:00 -2,3 C 65 % 1021,1 hPa 0,0 l/m 3,0 km/h NO -8,0 C -2,3 C 8,0 km/h
14.12.2009 14:00 -2,3 C 67 % 1020,9 hPa 0,0 l/m 3,0 km/h NO -7,6 C -2,3 C 8,0 km/h
14.12.2009 15:00 -2,3 C 68 % 1020,9 hPa 0,0 l/m 2,6 km/h NO -7,3 C -2,3 C 6,4 km/h
14.12.2009 16:00 -2,4 C 70 % 1020,9 hPa 0,0 l/m 2,8 km/h O -7,2 C -2,4 C 8,1 km/h
14.12.2009 17:00 -2,7 C 72 % 1021,1 hPa 0,0 l/m 0,9 km/h O-NO -7,1 C -2,7 C 4,3 km/h
14.12.2009 18:00 -2,8 C 72 % 1021,0 hPa 0,0 l/m 0,7 km/h N -7,1 C -2,8 C 4,4 km/h
14.12.2009 19:00 -3,4 C 74 % 1021,1 hPa 0,0 l/m 0,0 km/h N -7,3 C -3,4 C 0,8 km/h
14.12.2009 20:00 -4,4 C 77 % 1021,1 hPa 0,0 l/m 0,0 km/h N -7,9 C -4,4 C 0,4 km/h
14.12.2009 21:00 -5,3 C 79 % 1021,1 hPa 0,0 l/m 0,0 km/h N -8,4 C -5,3 C 0,0 km/h
14.12.2009 22:00 -6,0 C 81 % 1021,1 hPa 0,0 l/m 0,0 km/h N -8,7 C -6,0 C 1,2 km/h
14.12.2009 23:00 -6,1 C 83 % 1020,8 hPa 0,0 l/m 0,1 km/h N -8,5 C -6,1 C 2,8 km/h
15.12.2009 00:00 -6,3 C 83 % 1020,5 hPa 0,0 l/m 0,1 km/h W-SW -8,7 C -6,3 C 1,6 km/h
15.12.2009 01:00 -6,3 C 84 % 1020,4 hPa 0,0 l/m 2,3 km/h S-SW -8,5 C -6,3 C 8,4 km/h
15.12.2009 02:00 -5,9 C 84 % 1020,2 hPa 0,0 l/m 0,2 km/h N -8,2 C -5,9 C 2,8 km/h
15.12.2009 03:00 -5,8 C 84 % 1019,6 hPa 0,0 l/m 0,2 km/h N -8,0 C -5,8 C 2,8 km/h
15.12.2009 04:00 -5,4 C 84 % 1019,3 hPa 0,0 l/m 0,1 km/h N -7,6 C -5,4 C 1,6 km/h
15.12.2009 05:00 -5,0 C 84 % 1019,0 hPa 0,0 l/m 0,1 km/h N -7,2 C -5,0 C 1,2 km/h
15.12.2009 06:00 -4,7 C 84 % 1018,8 hPa 0,0 l/m 0,0 km/h N -7,0 C -4,7 C 0,4 km/h
15.12.2009 07:00 -4,8 C 84 % 1018,8 hPa 0,0 l/m 0,1 km/h N -7,1 C -4,8 C 2,0 km/h
15.12.2009 08:00 -5,5 C 83 % 1019,0 hPa 0,0 l/m 0,0 km/h N -7,9 C -5,5 C 1,1 km/h
15.12.2009 09:00 -5,1 C 87 % 1018,9 hPa 0,0 l/m 0,6 km/h W-NW -7,0 C -5,1 C 3,6 km/h
15.12.2009 10:00 -3,2 C 83 % 1018,4 hPa 0,0 l/m 2,5 km/h N-NW -5,7 C -3,2 C 6,0 km/h
15.12.2009 11:00 -1,4 C 79 % 1017,4 hPa 0,0 l/m 2,0 km/h NO -4,6 C -1,4 C 8,1 km/h
15.12.2009 12:00 -0,6 C 74 % 1016,7 hPa 0,0 l/m 3,0 km/h NO -4,6 C -0,6 C 8,0 km/h
15.12.2009 13:00 -0,2 C 72 % 1015,8 hPa 0,0 l/m 3,8 km/h NO -4,6 C -0,2 C 9,7 km/h
15.12.2009 14:00 -0,1 C 69 % 1015,1 hPa 0,0 l/m 3,7 km/h N-NO -5,2 C -0,1 C 11,3 km/h
15.12.2009 15:00 -0,2 C 68 % 1014,8 hPa 0,0 l/m 3,1 km/h NO -5,4 C -0,2 C 8,0 km/h
15.12.2009 16:00 -1,0 C 73 % 1014,7 hPa 0,0 l/m 1,7 km/h NW -5,3 C -1,0 C 5,2 km/h
15.12.2009 17:00 -1,4 C 75 % 1014,5 hPa 0,0 l/m 2,9 km/h NO -5,2 C -1,4 C 9,6 km/h
15.12.2009 18:00 -1,3 C 69 % 1014,3 hPa 0,0 l/m 5,1 km/h NO -6,3 C -1,3 C 14,9 km/h
15.12.2009 19:00 -1,6 C 69 % 1014,1 hPa 0,0 l/m 5,1 km/h NO -6,5 C -1,7 C 18,9 km/h
15.12.2009 20:00 -2,1 C 70 % 1014,3 hPa 0,0 l/m 4,0 km/h NO -6,9 C -2,1 C 13,3 km/h
15.12.2009 21:00 -2,5 C 71 % 1014,0 hPa 0,0 l/m 5,3 km/h NO -7,0 C -2,5 C 15,3 km/h
15.12.2009 22:00 -2,9 C 70 % 1013,5 hPa 0,0 l/m 3,7 km/h NW -7,7 C -2,9 C 10,9 km/h
15.12.2009 23:00 -3,0 C 69 % 1013,0 hPa 0,0 l/m 4,0 km/h N-NW -7,8 C -3,0 C 10,9 km/h
16.12.2009 00:00 -3,1 C 71 % 1012,7 hPa 0,0 l/m 3,7 km/h NW -7,6 C -3,1 C 9,7 km/h
16.12.2009 01:00 -3,1 C 71 % 1012,2 hPa 0,0 l/m 3,7 km/h NW -7,5 C -3,1 C 9,7 km/h
16.12.2009 02:00 -3,1 C 72 % 1011,8 hPa 0,0 l/m 2,9 km/h NW -7,4 C -3,1 C 7,6 km/h
16.12.2009 03:00 -3,0 C 73 % 1011,4 hPa 0,0 l/m 2,6 km/h NW -7,3 C -3,0 C 7,2 km/h
16.12.2009 04:00 -3,1 C 73 % 1011,0 hPa 0,0 l/m 4,0 km/h NW -7,2 C -3,1 C 11,3 km/h
16.12.2009 05:00 -3,1 C 72 % 1010,7 hPa 0,0 l/m 5,0 km/h NW -7,4 C -3,1 C 11,7 km/h
16.12.2009 06:00 -3,3 C 72 % 1010,8 hPa 0,0 l/m 5,0 km/h N-NW -7,5 C -3,3 C 12,1 km/h
16.12.2009 07:00 -3,3 C 72 % 1010,9 hPa 0,0 l/m 4,6 km/h NW -7,7 C -3,3 C 12,1 km/h
16.12.2009 08:00 -3,5 C 72 % 1011,1 hPa 0,0 l/m 5,9 km/h NW -7,8 C -3,7 C 13,7 km/h
16.12.2009 09:00 -3,6 C 73 % 1011,3 hPa 0,0 l/m 3,9 km/h NW -7,7 C -3,6 C 8,8 km/h
16.12.2009 10:00 -3,9 C 79 % 1011,1 hPa 0,0 l/m 2,9 km/h NW -7,1 C -3,9 C 8,4 km/h
16.12.2009 11:00 -3,9 C 80 % 1010,3 hPa 0,0 l/m 3,7 km/h N-NW -6,8 C -3,9 C 8,8 km/h
16.12.2009 12:00 -3,7 C 79 % 1009,8 hPa 0,0 l/m 3,0 km/h N-NW -6,8 C -3,7 C 9,3 km/h
16.12.2009 13:00 -3,3 C 80 % 1009,3 hPa 0,0 l/m 3,3 km/h NW -6,4 C -3,3 C 8,4 km/h
16.12.2009 14:00 -3,2 C 78 % 1009,1 hPa 0,0 l/m 4,4 km/h W-NW -6,5 C -3,2 C 10,1 km/h
16.12.2009 15:00 -3,5 C 77 % 1009,3 hPa 0,0 l/m 4,7 km/h NW -6,9 C -3,7 C 11,8 km/h
16.12.2009 16:00 -3,7 C 79 % 1009,2 hPa 0,0 l/m 2,7 km/h NW -6,9 C -3,7 C 8,0 km/h
16.12.2009 17:00 -3,9 C 81 % 1009,1 hPa 0,0 l/m 2,4 km/h N-NW -6,7 C -3,9 C 6,8 km/h
16.12.2009 18:00 -4,0 C 83 % 1008,8 hPa 0,0 l/m 1,8 km/h N-NW -6,5 C -4,0 C 6,8 km/h
16.12.2009 19:00 -3,8 C 83 % 1008,5 hPa 0,0 l/m 2,3 km/h N-NW -6,3 C -3,8 C 6,8 km/h
16.12.2009 20:00 -3,8 C 83 % 1008,3 hPa 0,0 l/m 2,7 km/h N-NO -6,4 C -3,8 C 11,7 km/h
16.12.2009 21:00 -4,1 C 82 % 1008,4 hPa 0,0 l/m 2,8 km/h N-NO -6,6 C -4,1 C 8,4 km/h
16.12.2009 22:00 -4,1 C 83 % 1008,1 hPa 0,0 l/m 2,0 km/h N-NW -6,6 C -4,1 C 6,4 km/h
16.12.2009 23:00 -4,1 C 82 % 1007,8 hPa 0,0 l/m 1,1 km/h N-NO -6,7 C -4,1 C 5,2 km/h
17.12.2009 00:00 -4,2 C 80 % 1007,5 hPa 0,0 l/m 0,8 km/h N-NW -7,1 C -4,2 C 4,0 km/h
17.12.2009 01:00 -4,2 C 78 % 1007,4 hPa 0,0 l/m 1,3 km/h NW -7,4 C -4,2 C 4,8 km/h
17.12.2009 02:00 -4,3 C 77 % 1007,2 hPa 0,0 l/m 1,1 km/h NW -7,7 C -4,3 C 5,2 km/h
17.12.2009 03:00 -4,3 C 77 % 1006,9 hPa 0,0 l/m 0,4 km/h N -7,8 C -4,3 C 2,8 km/h
17.12.2009 04:00 -4,4 C 78 % 1006,8 hPa 0,0 l/m 0,2 km/h N -7,6 C -4,4 C 2,8 km/h
17.12.2009 05:00 -4,4 C 76 % 1006,5 hPa 0,0 l/m 0,9 km/h W -8,0 C -4,4 C 4,4 km/h
17.12.2009 06:00 -4,3 C 71 % 1006,4 hPa 0,0 l/m 3,4 km/h NW -8,8 C -4,3 C 13,7 km/h
17.12.2009 07:00 -4,6 C 70 % 1006,6 hPa 0,0 l/m 3,2 km/h NW -9,2 C -4,6 C 12,1 km/h
17.12.2009 08:00 -4,7 C 71 % 1007,0 hPa 0,0 l/m 2,8 km/h NW -9,1 C -4,7 C 8,9 km/h
17.12.2009 09:00 -4,5 C 72 % 1007,3 hPa 0,0 l/m 4,0 km/h NW -8,8 C -4,5 C 11,7 km/h
17.12.2009 10:00 -3,8 C 71 % 1007,4 hPa 0,0 l/m 6,8 km/h NW -8,2 C -4,7 C 13,7 km/h
17.12.2009 11:00 -3,5 C 71 % 1007,3 hPa 0,0 l/m 7,9 km/h NW -8,0 C -5,1 C 18,9 km/h
17.12.2009 12:00 -3,2 C 67 % 1007,1 hPa 0,0 l/m 7,5 km/h NW -8,5 C -4,3 C 19,3 km/h
17.12.2009 13:00 -3,3 C 68 % 1007,0 hPa 0,0 l/m 7,9 km/h NW -8,4 C -4,9 C 18,1 km/h
17.12.2009 14:00 -3,8 C 77 % 1007,2 hPa 0,0 l/m 4,3 km/h NW -7,2 C -3,8 C 11,3 km/h
17.12.2009 15:00 -4,3 C 81 % 1007,2 hPa 0,0 l/m 2,3 km/h N-NW -7,1 C -4,3 C 6,0 km/h
17.12.2009 16:00 -4,6 C 83 % 1007,5 hPa 0,0 l/m 1,9 km/h N-NO -7,1 C -4,6 C 6,4 km/h
17.12.2009 17:00 -4,8 C 84 % 1007,8 hPa 0,0 l/m 1,4 km/h N -7,1 C -4,8 C 5,6 km/h
17.12.2009 18:00 -5,1 C 87 % 1008,1 hPa 0,0 l/m 2,2 km/h NW -7,0 C -5,1 C 8,0 km/h
17.12.2009 19:00 -5,3 C 85 % 1008,2 hPa 0,0 l/m 1,4 km/h N-NO -7,4 C -5,3 C 5,2 km/h
17.12.2009 20:00 -5,6 C 85 % 1008,3 hPa 0,0 l/m 2,6 km/h N -7,7 C -5,6 C 9,2 km/h
17.12.2009 21:00 -5,8 C 87 % 1008,6 hPa 0,0 l/m 2,8 km/h N-NW -7,7 C -5,8 C 8,9 km/h
17.12.2009 22:00 -6,2 C 85 % 1008,8 hPa 0,0 l/m 2,7 km/h NW -8,3 C -6,2 C 8,4 km/h
17.12.2009 23:00 -7,3 C 84 % 1008,6 hPa 0,0 l/m 4,0 km/h NW -9,5 C -7,3 C 11,3 km/h
18.12.2009 00:00 -7,6 C 84 % 1008,4 hPa 0,0 l/m 2,5 km/h N-NW -9,9 C -7,6 C 6,8 km/h
18.12.2009 01:00 -7,2 C 82 % 1008,4 hPa 0,0 l/m 3,3 km/h N-NW -9,7 C -7,2 C 10,5 km/h
18.12.2009 02:00 -7,3 C 80 % 1008,4 hPa 0,0 l/m 1,7 km/h N-NO -10,2 C -7,3 C 5,6 km/h
18.12.2009 03:00 -7,4 C 80 % 1008,1 hPa 0,0 l/m 1,2 km/h N-NW -10,2 C -7,4 C 5,2 km/h
18.12.2009 04:00 -7,2 C 83 % 1007,7 hPa 0,0 l/m 0,8 km/h N -9,7 C -7,2 C 4,4 km/h
18.12.2009 05:00 -6,9 C 81 % 1007,3 hPa 0,0 l/m 1,3 km/h N-NO -9,5 C -6,9 C 4,4 km/h
18.12.2009 06:00 -6,6 C 82 % 1006,9 hPa 0,0 l/m 0,4 km/h NW -9,2 C -6,6 C 3,2 km/h
18.12.2009 07:00 -5,8 C 83 % 1006,7 hPa 0,0 l/m 0,9 km/h N -8,2 C -5,8 C 4,0 km/h
18.12.2009 08:00 -5,4 C 83 % 1006,7 hPa 0,0 l/m 0,2 km/h O-NO -7,8 C -5,4 C 2,4 km/h
18.12.2009 09:00 -5,7 C 82 % 1007,0 hPa 0,0 l/m 0,5 km/h N -8,2 C -5,7 C 2,4 km/h
18.12.2009 10:00 -5,4 C 83 % 1006,7 hPa 0,0 l/m 0,4 km/h N -7,8 C -5,4 C 2,8 km/h
18.12.2009 11:00 -5,2 C 82 % 1006,5 hPa 0,0 l/m 0,3 km/h O-SO -7,8 C -5,2 C 3,2 km/h
18.12.2009 12:00 -4,2 C 81 % 1005,6 hPa 0,0 l/m 0,8 km/h NW -6,9 C -4,2 C 3,2 km/h
18.12.2009 13:00 -3,3 C 75 % 1005,4 hPa 0,0 l/m 1,3 km/h NW -7,1 C -3,3 C 6,4 km/h
18.12.2009 14:00 -2,9 C 69 % 1005,3 hPa 0,0 l/m 2,1 km/h SW -7,9 C -2,9 C 8,4 km/h
18.12.2009 15:00 -3,0 C 70 % 1005,4 hPa 0,0 l/m 1,0 km/h N -7,7 C -3,0 C 6,8 km/h
18.12.2009 16:00 -3,6 C 74 % 1005,4 hPa 0,0 l/m 0,9 km/h S -7,5 C -3,6 C 5,6 km/h
18.12.2009 17:00 -4,0 C 76 % 1005,4 hPa 0,0 l/m 0,3 km/h N -7,7 C -4,0 C 3,2 km/h
18.12.2009 18:00 -4,3 C 76 % 1005,5 hPa 0,0 l/m 0,0 km/h N -7,9 C -4,3 C 1,6 km/h
18.12.2009 19:00 -5,8 C 76 % 1005,5 hPa 0,0 l/m 0,0 km/h N -9,4 C -5,8 C 0,0 km/h
18.12.2009 20:00 -7,7 C 77 % 1005,7 hPa 0,0 l/m 0,1 km/h N -11,0 C -7,7 C 0,8 km/h
18.12.2009 21:00 -9,4 C 80 % 1005,9 hPa 0,0 l/m 0,0 km/h N -12,2 C -9,4 C 0,0 km/h
18.12.2009 22:00 -10,4 C 82 % 1005,9 hPa 0,0 l/m 0,0 km/h N -12,9 C -10,4 C 0,0 km/h
18.12.2009 23:00 -11,2 C 83 % 1005,7 hPa 0,0 l/m 0,0 km/h N -13,5 C -11,2 C 0,8 km/h
19.12.2009 00:00 -12,0 C 84 % 1005,4 hPa 0,0 l/m 0,0 km/h N -14,2 C -12,0 C 0,0 km/h
19.12.2009 01:00 -12,3 C 84 % 1005,4 hPa 0,0 l/m 0,0 km/h N -14,5 C -12,3 C 0,8 km/h
19.12.2009 02:00 -12,9 C 84 % 1005,5 hPa 0,0 l/m 0,0 km/h N -15,0 C -12,9 C 0,0 km/h
19.12.2009 03:00 -13,2 C 85 % 1005,4 hPa 0,0 l/m 0,0 km/h N -15,2 C -13,2 C 0,8 km/h
19.12.2009 04:00 -13,5 C 85 % 1005,0 hPa 0,0 l/m 0,0 km/h N -15,6 C -13,5 C 0,8 km/h
19.12.2009 05:00 -13,2 C 85 % 1005,1 hPa 0,0 l/m 0,0 km/h N -15,2 C -13,2 C 0,0 km/h
19.12.2009 06:00 -12,2 C 86 % 1005,8 hPa 0,0 l/m 0,2 km/h N -14,0 C -12,2 C 2,0 km/h
19.12.2009 07:00 -11,5 C 86 % 1006,0 hPa 0,0 l/m 0,1 km/h N -13,4 C -11,5 C 0,8 km/h
19.12.2009 08:00 -10,9 C 87 % 1005,6 hPa 0,0 l/m 0,3 km/h N -12,6 C -10,9 C 2,4 km/h
19.12.2009 09:00 -9,4 C 87 % 1006,0 hPa 0,0 l/m 0,0 km/h N -11,2 C -9,4 C 0,8 km/h
19.12.2009 10:00 -8,4 C 88 % 1005,8 hPa 0,0 l/m 0,0 km/h N -10,1 C -8,4 C 1,2 km/h
19.12.2009 11:00 -7,5 C 88 % 1005,2 hPa 0,0 l/m 0,0 km/h N -9,3 C -7,5 C 0,8 km/h
19.12.2009 12:00 -7,0 C 87 % 1004,6 hPa 0,0 l/m 0,2 km/h O -8,8 C -7,0 C 1,6 km/h
19.12.2009 13:00 -6,9 C 87 % 1004,3 hPa 0,0 l/m 0,5 km/h N -8,7 C -6,9 C 3,2 km/h
19.12.2009 14:00 -6,9 C 87 % 1004,1 hPa 0,0 l/m 0,2 km/h N -8,7 C -6,9 C 1,2 km/h
19.12.2009 15:00 -6,8 C 87 % 1004,1 hPa 0,0 l/m 0,1 km/h N -8,7 C -6,8 C 1,6 km/h
19.12.2009 16:00 -7,1 C 86 % 1004,2 hPa 0,0 l/m 0,1 km/h N -8,9 C -7,1 C 1,6 km/h
19.12.2009 17:00 -7,6 C 86 % 1004,0 hPa 0,0 l/m 0,0 km/h N -9,5 C -7,6 C 0,4 km/h
19.12.2009 18:00 -7,6 C 87 % 1003,8 hPa 0,0 l/m 0,2 km/h N -9,4 C -7,6 C 0,8 km/h
19.12.2009 19:00 -7,0 C 87 % 1003,4 hPa 0,0 l/m 2,4 km/h N-NW -8,8 C -7,0 C 6,4 km/h
19.12.2009 20:00 -7,1 C 87 % 1003,5 hPa 0,0 l/m 3,8 km/h N-NW -9,0 C -7,1 C 8,4 km/h
19.12.2009 21:00 -7,3 C 86 % 1003,7 hPa 0,0 l/m 3,1 km/h NW -9,2 C -7,3 C 8,0 km/h
19.12.2009 22:00 -7,2 C 86 % 1004,0 hPa 0,0 l/m 4,3 km/h NW -9,1 C -7,2 C 10,9 km/h
19.12.2009 23:00 -7,2 C 86 % 1003,9 hPa 0,0 l/m 4,5 km/h W-NW -9,2 C -7,2 C 14,1 km/h
20.12.2009 00:00 -7,3 C 86 % 1003,9 hPa 0,0 l/m 7,1 km/h W-NW -9,3 C -8,5 C 19,3 km/h
20.12.2009 01:00 -7,7 C 86 % 1004,3 hPa 0,0 l/m 9,1 km/h NW -9,6 C -10,9 C 21,7 km/h
20.12.2009 02:00 -7,7 C 86 % 1004,8 hPa 0,0 l/m 8,5 km/h NW -9,6 C -10,2 C 20,9 km/h
20.12.2009 03:00 -8,4 C 85 % 1005,5 hPa 0,0 l/m 11,3 km/h NW -10,5 C -14,0 C 23,7 km/h
20.12.2009 04:00 -9,3 C 80 % 1006,2 hPa 0,0 l/m 13,9 km/h W-NW -12,1 C -17,2 C 33,0 km/h
20.12.2009 05:00 -10,1 C 77 % 1007,0 hPa 0,0 l/m 15,5 km/h W -13,4 C -19,6 C 36,2 km/h
20.12.2009 06:00 -10,9 C 71 % 1008,1 hPa 0,0 l/m 14,8 km/h W-NW -15,0 C -19,8 C 35,4 km/h
20.12.2009 07:00 -11,3 C 65 % 1008,9 hPa 0,0 l/m 12,4 km/h NW -16,6 C -18,3 C 31,8 km/h
20.12.2009 08:00 -11,6 C 65 % 1009,8 hPa 0,0 l/m 11,9 km/h NW -16,9 C -18,3 C 33,0 km/h
20.12.2009 09:00 -12,0 C 67 % 1010,4 hPa 0,0 l/m 11,5 km/h NW -16,9 C -18,2 C 27,4 km/h
20.12.2009 10:00 -11,6 C 68 % 1010,5 hPa 0,0 l/m 8,9 km/h NW -16,2 C -14,8 C 22,1 km/h
20.12.2009 11:00 -10,4 C 67 % 1010,1 hPa 0,0 l/m 11,1 km/h N -15,4 C -15,9 C 25,0 km/h
20.12.2009 12:00 -9,5 C 65 % 1009,9 hPa 0,0 l/m 5,3 km/h N-NO -14,8 C -9,8 C 18,1 km/h
20.12.2009 13:00 -8,4 C 64 % 1009,5 hPa 0,0 l/m 5,9 km/h NW -14,1 C -9,0 C 17,7 km/h
20.12.2009 14:00 -7,6 C 61 % 1009,4 hPa 0,0 l/m 7,5 km/h W -13,8 C -9,4 C 26,5 km/h
20.12.2009 15:00 -7,7 C 63 % 1009,4 hPa 0,0 l/m 8,8 km/h NW -13,5 C -10,6 C 21,7 km/h
20.12.2009 16:00 -8,4 C 66 % 1010,0 hPa 0,0 l/m 3,9 km/h S-SW -13,7 C -8,4 C 11,7 km/h
20.12.2009 17:00 -9,1 C 68 % 1010,4 hPa 0,0 l/m 0,7 km/h S -13,8 C -9,1 C 5,6 km/h
20.12.2009 18:00 -10,5 C 70 % 1010,5 hPa 0,0 l/m 0,1 km/h N -14,9 C -10,5 C 1,2 km/h
20.12.2009 19:00 -12,9 C 72 % 1010,5 hPa 0,0 l/m 0,0 km/h N -16,9 C -12,9 C 0,4 km/h
20.12.2009 20:00 -14,7 C 75 % 1010,1 hPa 0,0 l/m 0,0 km/h N -18,1 C -14,7 C 0,0 km/h
20.12.2009 21:00 -15,7 C 78 % 1009,8 hPa 0,0 l/m 0,0 km/h N -18,7 C -15,7 C 0,8 km/h
20.12.2009 22:00 -15,2 C 81 % 1009,0 hPa 0,0 l/m 0,1 km/h N -17,7 C -15,2 C 1,2 km/h
20.12.2009 23:00 -12,8 C 84 % 1008,2 hPa 0,0 l/m 0,7 km/h S -14,9 C -12,8 C 5,6 km/h
Min-Datum _ 20.12.09 20.12.09 19.12.09 - 14.12.09 - 20.12.09 20.12.09 14.12.09
_ Min-Zeit 21:30 14:15 19:15 - 17:30 - 21:15 06:00 19:00
Minimum _ -15,9 C 61 % 1003,3 hPa - 0,0 km/h - -18,9 C -22,0 C 0,0 km/h
Max-Datum _ 15.12.09 15.12.09 14.12.09 14.12.09 20.12.09 - 15.12.09 15.12.09 20.12.09
_ Max-Zeit 13:30 09:15 08:45 00:00 06:00 - 11:30 13:30 06:15
Maximum _ 0,1 C 92 % 1022,9 hPa 0,0 l/m 18,0 km/h
W-NW
- -4,4 C 0,0 C 45,1 km/h
W-SW
Durchschnitt _ -5,8 C 77 % 1010,8 hPa #0,0 l/m 2,7 km/h NW -9,2 C -6,3 C 8,0 km/h